createdAt,value
2023-02-06T00:02:18.207Z,29.45
2023-02-06T00:04:48.352Z,28.10
2023-02-06T00:07:18.399Z,28.70
2023-02-06T00:09:48.458Z,25.40
2023-02-06T00:12:19.125Z,30.20
2023-02-06T00:14:48.992Z,26.20
2023-02-06T00:17:19.050Z,26.48
2023-02-06T00:19:49.083Z,26.75
2023-02-06T00:22:19.178Z,26.95
2023-02-06T00:24:49.225Z,22.23
2023-02-06T00:27:19.360Z,26.25
2023-02-06T00:29:49.453Z,26.08
2023-02-06T00:32:20.073Z,20.08
2023-02-06T00:34:50.142Z,24.67
2023-02-06T00:37:20.205Z,23.75
2023-02-06T00:39:50.319Z,24.10
2023-02-06T00:42:20.659Z,30.52
2023-02-06T00:44:50.779Z,24.05
2023-02-06T00:47:19.169Z,27.05
2023-02-06T00:49:47.670Z,28.73
2023-02-06T00:52:16.079Z,26.35
2023-02-06T00:54:44.423Z,25.70
2023-02-06T00:57:12.899Z,21.25
2023-02-06T00:59:41.273Z,28.30
2023-02-06T01:02:09.801Z,26.02
2023-02-06T01:04:38.262Z,21.42
2023-02-06T01:07:06.522Z,25.85
2023-02-06T01:09:35.105Z,27.13
2023-02-06T01:12:03.656Z,25.85
2023-02-06T01:14:31.972Z,23.02
2023-02-06T01:17:00.221Z,21.80
2023-02-06T01:19:28.763Z,19.42
2023-02-06T01:21:57.141Z,21.75
2023-02-06T01:24:25.458Z,24.35
2023-02-06T01:26:53.918Z,24.75
2023-02-06T01:29:22.426Z,30.20
2023-02-06T01:31:50.745Z,45.75
2023-02-06T01:34:19.160Z,57.47
2023-02-06T01:36:47.566Z,36.42
2023-02-06T01:39:16.006Z,41.20
2023-02-06T01:41:45.603Z,28.52
2023-02-06T01:44:22.670Z,26.88
2023-02-06T01:46:57.611Z,26.20
2023-02-06T01:49:44.061Z,30.33
2023-02-06T01:52:23.612Z,27.80
2023-02-06T01:55:05.047Z,25.00
2023-02-06T01:57:35.285Z,24.88
2023-02-06T02:00:11.736Z,26.38
2023-02-06T02:02:50.758Z,22.67
2023-02-06T02:05:21.310Z,20.83
2023-02-06T02:08:06.759Z,25.33
2023-02-06T02:10:35.612Z,21.75
2023-02-06T02:13:03.242Z,23.50
2023-02-06T02:16:05.090Z,23.30
2023-02-06T02:19:16.910Z,24.90
2023-02-06T02:22:26.729Z,27.25
2023-02-06T02:25:53.494Z,23.00
2023-02-06T02:28:53.782Z,24.13
2023-02-06T02:32:03.641Z,22.55
2023-02-06T02:35:17.729Z,29.02
2023-02-06T02:38:37.549Z,23.13
2023-02-06T02:41:33.808Z,18.95
2023-02-06T02:44:24.033Z,22.58
2023-02-06T02:47:04.154Z,36.13
2023-02-06T02:49:40.849Z,27.80
2023-02-06T02:52:13.740Z,24.15
2023-02-06T02:54:43.788Z,29.58
2023-02-06T02:57:28.052Z,28.70
2023-02-06T03:00:02.133Z,27.10
2023-02-06T03:02:40.899Z,20.80
2023-02-06T03:05:20.430Z,24.85
2023-02-06T03:08:28.621Z,26.00
2023-02-06T03:11:17.292Z,26.80
2023-02-06T03:14:29.650Z,21.85
2023-02-06T03:17:14.093Z,27.50
2023-02-06T03:19:55.598Z,26.77
2023-02-06T03:22:30.138Z,25.77
2023-02-06T03:25:09.831Z,24.42
2023-02-06T03:27:46.052Z,24.33
2023-02-06T03:30:24.007Z,24.40
2023-02-06T03:33:07.704Z,22.60
2023-02-06T03:35:40.637Z,23.05
2023-02-06T03:38:11.576Z,26.27
2023-02-06T03:40:49.204Z,25.10
2023-02-06T03:43:26.667Z,19.33
2023-02-06T03:46:07.464Z,23.77
2023-02-06T03:48:45.977Z,17.92
2023-02-06T03:51:30.542Z,18.13
2023-02-06T03:54:05.902Z,20.30
2023-02-06T03:56:56.754Z,20.10
2023-02-06T03:59:27.739Z,21.63
2023-02-06T04:02:03.877Z,20.20
2023-02-06T04:04:42.584Z,18.33
2023-02-06T04:07:36.223Z,17.45
2023-02-06T04:10:07.047Z,17.95
2023-02-06T04:12:34.810Z,22.83
2023-02-06T04:15:03.873Z,21.60
2023-02-06T04:17:46.273Z,16.08
2023-02-06T04:20:21.337Z,27.05
2023-02-06T04:22:51.399Z,19.50
2023-02-06T04:25:21.924Z,21.15
2023-02-06T04:27:52.206Z,20.55
2023-02-06T04:30:22.318Z,21.30
2023-02-06T04:32:52.529Z,23.20
2023-02-06T04:35:22.852Z,20.33
2023-02-06T04:37:53.248Z,17.33
2023-02-06T04:40:23.328Z,22.02
2023-02-06T04:42:53.512Z,17.38
2023-02-06T04:45:23.762Z,19.30
2023-02-06T04:47:53.911Z,18.65
2023-02-06T04:50:24.665Z,15.48
2023-02-06T04:52:54.672Z,19.50
2023-02-06T04:55:24.785Z,19.83
2023-02-06T04:57:54.877Z,19.13
2023-02-06T05:00:24.968Z,16.65
2023-02-06T05:02:54.985Z,15.38
2023-02-06T05:05:25.059Z,17.45
2023-02-06T05:07:55.141Z,18.65
2023-02-06T05:10:26.965Z,20.45
2023-02-06T05:12:57.153Z,18.63
2023-02-06T05:15:27.192Z,15.93
2023-02-06T05:17:57.259Z,22.05
2023-02-06T05:20:27.613Z,16.77
2023-02-06T05:22:57.952Z,15.75
2023-02-06T05:25:28.304Z,15.40
2023-02-06T05:27:58.473Z,18.83
2023-02-06T05:30:28.859Z,18.17
2023-02-06T05:32:59.183Z,17.92
2023-02-06T05:35:29.462Z,22.20
2023-02-06T05:37:59.481Z,16.00
2023-02-06T05:40:29.608Z,18.30
2023-02-06T05:42:59.694Z,19.80
2023-02-06T05:45:29.736Z,16.27
2023-02-06T05:47:59.813Z,17.25
2023-02-06T05:50:28.484Z,23.10
2023-02-06T05:52:56.650Z,16.90
2023-02-06T05:55:25.405Z,20.60
2023-02-06T05:57:53.686Z,16.42
2023-02-06T06:00:22.431Z,18.73
2023-02-06T06:02:50.484Z,23.75
2023-02-06T06:05:18.980Z,24.30
2023-02-06T06:07:47.854Z,21.45
2023-02-06T06:10:16.300Z,17.55
2023-02-06T06:12:44.187Z,19.27
2023-02-06T06:15:13.082Z,21.33
2023-02-06T06:17:41.163Z,21.05
2023-02-06T06:20:10.393Z,23.25
2023-02-06T06:22:38.094Z,21.75
2023-02-06T06:25:07.314Z,22.80
2023-02-06T06:27:34.930Z,20.65
2023-02-06T06:30:04.056Z,23.90
2023-02-06T06:32:32.453Z,26.27
2023-02-06T06:35:00.099Z,15.68
2023-02-06T06:37:28.611Z,25.30
2023-02-06T06:39:56.964Z,22.77
2023-02-06T06:42:25.709Z,24.52
2023-02-06T06:44:53.824Z,24.25
2023-02-06T06:47:22.337Z,23.73
2023-02-06T06:49:50.676Z,19.08
2023-02-06T06:52:24.999Z,22.58
2023-02-06T06:54:55.733Z,19.05
2023-02-06T06:57:25.860Z,18.27
2023-02-06T06:59:55.881Z,24.02
2023-02-06T07:02:28.515Z,22.52
2023-02-06T07:05:00.410Z,17.23
2023-02-06T07:07:30.731Z,28.05
2023-02-06T07:10:02.032Z,21.00
2023-02-06T07:12:33.207Z,21.88
2023-02-06T07:15:05.684Z,22.05
2023-02-06T07:17:36.788Z,24.50
2023-02-06T07:20:07.993Z,21.13
2023-02-06T07:22:38.504Z,21.48
2023-02-06T07:25:08.761Z,19.67
2023-02-06T07:27:38.816Z,23.70
2023-02-06T07:30:10.254Z,18.63
2023-02-06T07:32:40.957Z,18.65
2023-02-06T07:35:11.187Z,20.45
2023-02-06T07:37:41.411Z,19.40
2023-02-06T07:40:12.748Z,19.05
2023-02-06T07:42:42.784Z,21.15
2023-02-06T07:45:11.319Z,23.05
2023-02-06T07:47:39.619Z,19.55
2023-02-06T07:50:08.608Z,19.67
2023-02-06T07:52:37.134Z,15.43
2023-02-06T07:55:05.552Z,26.42
2023-02-06T07:57:33.277Z,19.67
2023-02-06T08:00:01.910Z,24.75
2023-02-06T08:02:30.096Z,20.00
2023-02-06T08:04:58.540Z,19.35
2023-02-06T08:07:27.093Z,24.38
2023-02-06T08:09:55.389Z,23.88
2023-02-06T08:12:24.113Z,24.00
2023-02-06T08:14:52.802Z,23.38
2023-02-06T08:17:21.362Z,27.48
2023-02-06T08:19:49.531Z,26.92
2023-02-06T08:22:17.478Z,28.65
2023-02-06T08:24:45.900Z,25.80
2023-02-06T08:27:14.378Z,26.25
2023-02-06T08:29:42.918Z,24.48
2023-02-06T08:32:12.769Z,24.80
2023-02-06T08:34:42.592Z,30.85
2023-02-06T08:37:11.097Z,24.15
2023-02-06T08:39:42.167Z,29.98
2023-02-06T08:42:15.343Z,36.03
2023-02-06T08:44:45.384Z,29.27
2023-02-06T08:47:16.967Z,28.35
2023-02-06T08:49:51.334Z,25.00
2023-02-06T08:52:22.709Z,23.70
2023-02-06T08:54:53.071Z,29.38
2023-02-06T08:57:23.183Z,31.48
2023-02-06T08:59:53.242Z,30.30
2023-02-06T09:02:23.428Z,29.77
2023-02-06T09:04:53.576Z,30.55
2023-02-06T09:07:24.555Z,31.75
2023-02-06T09:09:54.610Z,32.88
2023-02-06T09:12:25.011Z,30.85
2023-02-06T09:14:55.099Z,32.65
2023-02-06T09:17:25.244Z,33.67
2023-02-06T09:19:55.304Z,34.00
2023-02-06T09:22:26.365Z,35.08
2023-02-06T09:24:56.475Z,39.30
2023-02-06T09:27:26.535Z,35.17
2023-02-06T09:29:56.565Z,37.33
2023-02-06T09:32:26.638Z,42.25
2023-02-06T09:34:56.666Z,43.30
2023-02-06T09:37:26.741Z,39.33
2023-02-06T09:39:56.838Z,44.78
2023-02-06T09:42:41.845Z,36.28
2023-02-06T09:45:22.452Z,46.38
2023-02-06T09:48:20.495Z,46.90
2023-02-06T09:51:17.610Z,48.83
2023-02-06T09:54:27.304Z,45.15
2023-02-06T09:57:40.037Z,55.20
2023-02-06T10:00:29.386Z,46.10
2023-02-06T10:03:38.978Z,45.70
2023-02-06T10:06:33.018Z,58.08
2023-02-06T10:09:24.463Z,49.88
2023-02-06T10:12:10.571Z,46.10
2023-02-06T10:14:56.294Z,49.65
2023-02-06T10:17:45.180Z,48.88
2023-02-06T10:20:43.524Z,43.80
2023-02-06T10:23:36.004Z,38.40
2023-02-06T10:26:17.059Z,42.58
2023-02-06T10:28:58.180Z,40.58
2023-02-06T10:31:26.134Z,38.63
2023-02-06T10:34:52.885Z,35.85
2023-02-06T10:37:52.710Z,39.22
2023-02-06T10:40:57.015Z,37.65
2023-02-06T10:44:04.184Z,37.55
2023-02-06T10:46:51.075Z,37.15
2023-02-06T10:49:47.801Z,35.50
2023-02-06T10:52:35.514Z,39.17
2023-02-06T10:55:49.271Z,38.38
2023-02-06T10:59:01.177Z,40.08
2023-02-06T11:01:40.006Z,33.38
2023-02-06T11:04:52.546Z,43.67
2023-02-06T11:07:33.533Z,38.00
2023-02-06T11:10:07.096Z,45.60
2023-02-06T11:12:48.107Z,36.30
2023-02-06T11:15:50.950Z,45.33
2023-02-06T11:18:39.157Z,45.92
2023-02-06T11:21:15.053Z,44.50
2023-02-06T11:23:45.106Z,48.75
2023-02-06T11:26:22.669Z,50.53
2023-02-06T11:29:14.636Z,47.13
2023-02-06T11:31:58.749Z,43.75
2023-02-06T11:34:53.548Z,41.75
2023-02-06T11:37:40.883Z,41.00
2023-02-06T11:40:17.316Z,48.47
2023-02-06T11:43:20.649Z,43.60
2023-02-06T11:46:14.175Z,39.83
2023-02-06T11:48:49.629Z,49.58
2023-02-06T11:51:19.724Z,42.70
2023-02-06T11:54:04.142Z,37.78
2023-02-06T11:56:32.394Z,47.80
2023-02-06T11:59:23.023Z,43.50
2023-02-06T12:01:53.903Z,50.83
2023-02-06T12:04:39.060Z,40.80
2023-02-06T12:07:22.086Z,39.30
2023-02-06T12:09:52.424Z,39.92
2023-02-06T12:12:47.210Z,34.55
2023-02-06T12:15:47.888Z,39.22
2023-02-06T12:18:32.393Z,40.42
2023-02-06T12:21:43.028Z,31.48
2023-02-06T12:24:43.255Z,35.95
2023-02-06T12:27:39.426Z,36.55
2023-02-06T12:31:04.971Z,34.63
2023-02-06T12:33:54.918Z,37.53
2023-02-06T12:36:50.014Z,39.90
2023-02-06T12:39:23.689Z,37.17
2023-02-06T12:42:18.901Z,35.22
2023-02-06T12:45:06.767Z,33.50
2023-02-06T12:47:57.534Z,33.88
2023-02-06T12:50:57.930Z,33.08
2023-02-06T12:54:00.717Z,26.60
2023-02-06T12:56:53.973Z,31.00
2023-02-06T12:59:58.326Z,31.05
2023-02-06T13:03:19.619Z,26.42
2023-02-06T13:06:21.102Z,29.60
2023-02-06T13:09:02.343Z,30.52
2023-02-06T13:11:42.649Z,29.17
2023-02-06T13:14:29.642Z,32.40
2023-02-06T13:17:04.887Z,32.45
2023-02-06T13:19:38.014Z,29.25
2023-02-06T13:22:10.696Z,25.30
2023-02-06T13:24:45.422Z,27.00
2023-02-06T13:27:37.087Z,25.35
2023-02-06T13:30:24.338Z,28.08
2023-02-06T13:33:14.360Z,27.48
2023-02-06T13:36:02.268Z,33.47
2023-02-06T13:38:35.332Z,29.95
2023-02-06T13:41:14.432Z,24.98
2023-02-06T13:44:24.805Z,28.30
2023-02-06T13:47:20.056Z,22.27
2023-02-06T13:50:24.024Z,22.52
2023-02-06T13:53:44.841Z,25.02
2023-02-06T13:56:41.818Z,25.95
2023-02-06T13:59:42.188Z,24.13
2023-02-06T14:02:23.582Z,23.15
2023-02-06T14:04:54.745Z,23.02
2023-02-06T14:08:02.021Z,24.40
2023-02-06T14:11:04.346Z,22.88
2023-02-06T14:14:14.830Z,27.48
2023-02-06T14:18:22.275Z,22.45
2023-02-06T14:21:18.452Z,26.08
2023-02-06T14:24:28.017Z,26.95
2023-02-06T14:27:33.906Z,25.50
2023-02-06T14:30:49.122Z,27.35
2023-02-06T14:33:43.433Z,28.42
2023-02-06T14:36:39.285Z,24.10
2023-02-06T14:39:49.040Z,23.88
2023-02-06T14:42:40.893Z,22.65
2023-02-06T14:45:41.584Z,21.52
2023-02-06T14:48:55.335Z,25.70
2023-02-06T14:51:37.338Z,27.63
2023-02-06T14:54:38.429Z,29.30
2023-02-06T14:57:26.467Z,21.70
2023-02-06T15:00:03.143Z,25.70
2023-02-06T15:02:36.967Z,30.95
2023-02-06T15:05:07.486Z,24.80
2023-02-06T15:07:39.340Z,23.60
2023-02-06T15:10:18.351Z,24.42
2023-02-06T15:12:54.382Z,23.77
2023-02-06T15:15:30.437Z,22.85
2023-02-06T15:18:17.962Z,23.70
2023-02-06T15:21:07.308Z,23.20
2023-02-06T15:23:45.780Z,25.92
2023-02-06T15:26:45.676Z,25.67
2023-02-06T15:29:24.338Z,29.58
2023-02-06T15:34:35.397Z,26.42
2023-02-06T15:37:44.060Z,23.50
2023-02-06T15:40:35.997Z,25.40
2023-02-06T15:43:07.025Z,28.25
2023-02-06T15:45:40.622Z,26.63
2023-02-06T15:48:31.190Z,26.38
2023-02-06T15:51:24.778Z,30.00
2023-02-06T15:54:22.670Z,28.20
2023-02-06T15:57:27.474Z,23.63
2023-02-06T15:59:59.573Z,30.30
2023-02-06T16:02:36.811Z,26.70
2023-02-06T16:05:18.797Z,28.45
2023-02-06T16:07:49.818Z,27.55
2023-02-06T16:10:40.817Z,25.80
2023-02-06T16:13:23.188Z,27.35
2023-02-06T16:16:11.645Z,22.60
2023-02-06T16:18:42.115Z,23.50
2023-02-06T16:21:18.038Z,26.30
2023-02-06T16:24:00.233Z,28.90
2023-02-06T16:26:43.324Z,29.48
2023-02-06T16:29:32.876Z,24.30
2023-02-06T16:32:29.645Z,25.48
2023-02-06T16:35:01.333Z,24.98
2023-02-06T16:37:32.129Z,29.33
2023-02-06T16:40:02.278Z,33.33
2023-02-06T16:42:41.397Z,37.28
2023-02-06T16:45:26.613Z,30.98
2023-02-06T16:47:56.561Z,38.08
2023-02-06T16:50:24.971Z,30.13
2023-02-06T16:53:01.848Z,33.10
2023-02-06T16:55:29.943Z,31.15
2023-02-06T16:58:01.582Z,28.30
2023-02-06T17:00:32.603Z,33.17
2023-02-06T17:03:01.125Z,29.75
2023-02-06T17:05:31.636Z,36.47
2023-02-06T17:08:03.998Z,28.80
2023-02-06T17:10:32.418Z,30.52
2023-02-06T17:13:02.481Z,32.72
2023-02-06T17:15:32.508Z,32.72
2023-02-06T17:18:02.301Z,29.52
2023-02-06T17:20:40.704Z,35.70
2023-02-06T17:23:11.114Z,41.08
2023-02-06T17:25:45.151Z,38.40
2023-02-06T17:28:19.452Z,37.92
2023-02-06T17:30:50.845Z,28.02
2023-02-06T17:33:21.088Z,36.08
2023-02-06T17:35:51.164Z,37.38
2023-02-06T17:38:20.914Z,38.65
2023-02-06T17:40:50.827Z,35.65
2023-02-06T17:43:20.965Z,37.83
2023-02-06T17:45:49.576Z,41.15
2023-02-06T17:48:17.353Z,37.13
2023-02-06T17:50:47.092Z,36.70
2023-02-06T17:53:15.264Z,41.63
2023-02-06T17:55:45.143Z,40.42
2023-02-06T17:58:14.672Z,43.78
2023-02-06T18:00:43.064Z,43.72
2023-02-06T18:03:11.491Z,39.45
2023-02-06T18:05:39.920Z,39.58
2023-02-06T18:08:08.230Z,39.53
2023-02-06T18:10:39.506Z,38.90
2023-02-06T18:13:09.683Z,40.10
2023-02-06T18:15:40.017Z,38.88
2023-02-06T18:18:09.814Z,41.08
2023-02-06T18:20:41.938Z,35.20
2023-02-06T18:23:14.274Z,46.22
2023-02-06T18:25:44.369Z,44.13
2023-02-06T18:28:15.122Z,48.92
2023-02-06T18:30:46.147Z,42.13
2023-02-06T18:33:16.472Z,42.92
2023-02-06T18:35:46.641Z,45.45
2023-02-06T18:38:18.404Z,47.60
2023-02-06T18:40:50.046Z,43.97
2023-02-06T18:43:18.041Z,46.20
2023-02-06T18:45:48.108Z,45.85
2023-02-06T18:48:18.160Z,53.72
2023-02-06T18:50:48.162Z,54.80
2023-02-06T18:53:18.275Z,64.15
2023-02-06T18:55:58.982Z,56.63
2023-02-06T18:58:28.421Z,59.35
2023-02-06T19:00:58.246Z,53.13
2023-02-06T19:03:28.127Z,55.75
2023-02-06T19:05:57.965Z,56.10
2023-02-06T19:08:27.952Z,61.60
2023-02-06T19:10:58.197Z,54.45
2023-02-06T19:13:27.995Z,57.22
2023-02-06T19:16:16.693Z,54.75
2023-02-06T19:18:49.471Z,60.70
2023-02-06T19:21:23.228Z,57.50
2023-02-06T19:24:00.540Z,55.88
2023-02-06T19:26:29.660Z,49.22
2023-02-06T19:29:00.703Z,50.50
2023-02-06T19:31:28.056Z,54.85
2023-02-06T19:34:01.894Z,54.70
2023-02-06T19:36:31.691Z,53.65
2023-02-06T19:39:06.338Z,49.45
2023-02-06T19:41:36.538Z,48.67
2023-02-06T19:44:14.227Z,48.90
2023-02-06T19:46:44.364Z,54.03
2023-02-06T19:49:14.189Z,60.33
2023-02-06T19:51:44.832Z,53.80
2023-02-06T19:54:15.764Z,60.78
2023-02-06T19:56:49.874Z,53.88
2023-02-06T19:59:27.606Z,61.72
2023-02-06T20:02:02.683Z,58.95
2023-02-06T20:04:35.591Z,56.25
2023-02-06T20:07:06.368Z,61.15
2023-02-06T20:09:41.152Z,57.15
2023-02-06T20:12:14.721Z,57.92
2023-02-06T20:14:42.622Z,62.65
2023-02-06T20:17:12.656Z,58.72
2023-02-06T20:19:42.680Z,66.35
2023-02-06T20:22:12.442Z,66.40
2023-02-06T20:24:42.313Z,61.17
2023-02-06T20:27:13.277Z,67.63
2023-02-06T20:29:45.843Z,63.10
2023-02-06T20:32:19.482Z,65.00
2023-02-06T20:34:48.665Z,63.55
2023-02-06T20:37:18.487Z,67.97
2023-02-06T20:39:49.264Z,61.45
2023-02-06T20:42:22.373Z,59.67
2023-02-06T20:44:52.749Z,64.65
2023-02-06T20:47:21.072Z,62.55
2023-02-06T20:49:51.009Z,72.05
2023-02-06T20:52:19.550Z,61.33
2023-02-06T20:54:47.868Z,64.97
2023-02-06T20:57:16.433Z,65.55
2023-02-06T20:59:44.858Z,65.10
2023-02-06T21:02:13.390Z,68.90
2023-02-06T21:04:41.776Z,61.38
2023-02-06T21:07:10.382Z,63.60
2023-02-06T21:09:38.750Z,65.07
2023-02-06T21:12:13.172Z,63.50
2023-02-06T21:14:42.997Z,69.55
2023-02-06T21:17:12.789Z,66.30
2023-02-06T21:19:42.715Z,67.85
2023-02-06T21:22:12.593Z,71.95
2023-02-06T21:24:42.407Z,64.43
2023-02-06T21:27:12.109Z,71.22
2023-02-06T21:29:41.810Z,62.75
2023-02-06T21:32:14.339Z,68.90
2023-02-06T21:34:44.730Z,64.25
2023-02-06T21:37:14.784Z,63.70
2023-02-06T21:39:45.053Z,54.80
2023-02-06T21:42:16.055Z,59.55
2023-02-06T21:44:46.288Z,58.63
2023-02-06T21:47:16.391Z,61.70
2023-02-06T21:49:46.701Z,62.33
2023-02-06T21:52:16.819Z,59.47
2023-02-06T21:54:46.859Z,60.63
2023-02-06T21:57:16.644Z,54.92
2023-02-06T21:59:46.558Z,64.13
2023-02-06T22:02:16.370Z,57.03
2023-02-06T22:04:45.263Z,62.88
2023-02-06T22:07:13.477Z,57.03
2023-02-06T22:09:42.110Z,58.90
2023-02-06T22:12:17.041Z,52.58
2023-02-06T22:14:47.052Z,58.58
2023-02-06T22:17:16.932Z,54.00
2023-02-06T22:25:09.252Z,54.28
2023-02-06T22:27:39.397Z,59.35
2023-02-06T22:30:10.859Z,59.90
2023-02-06T22:32:40.894Z,54.28
2023-02-06T22:35:11.006Z,53.20
2023-02-06T22:37:43.075Z,56.53
2023-02-06T22:40:14.389Z,53.63
2023-02-06T22:42:44.136Z,50.80
2023-02-06T22:45:14.097Z,49.70
2023-02-06T22:47:43.761Z,53.13
2023-02-06T22:50:13.918Z,54.50
2023-02-06T22:53:02.035Z,54.08
2023-02-06T22:55:49.929Z,54.55
2023-02-06T22:58:19.754Z,54.58
2023-02-06T23:00:49.886Z,51.97
2023-02-06T23:03:19.628Z,59.75
2023-02-06T23:05:49.482Z,60.70
2023-02-06T23:08:19.341Z,56.72
2023-02-06T23:10:49.448Z,58.97
2023-02-06T23:13:19.231Z,56.10
2023-02-06T23:15:49.035Z,56.20
2023-02-06T23:18:18.762Z,53.92
2023-02-06T23:21:24.689Z,57.50
2023-02-06T23:24:00.865Z,52.58
2023-02-06T23:26:31.807Z,57.33
2023-02-06T23:29:07.401Z,50.42
2023-02-06T23:31:37.534Z,54.67
2023-02-06T23:34:04.806Z,54.42
2023-02-06T23:36:33.188Z,56.03
2023-02-06T23:39:04.739Z,57.80
2023-02-06T23:41:35.644Z,54.55
2023-02-06T23:44:08.496Z,54.08
2023-02-06T23:46:41.333Z,56.83
2023-02-06T23:49:12.017Z,51.47
2023-02-06T23:51:39.838Z,54.78
2023-02-06T23:54:09.580Z,51.65
2023-02-06T23:56:39.379Z,57.75
2023-02-06T23:59:10.344Z,44.65
